Time;durP1;ratioP1;P1;durP2;ratioP2;P2;SDS_P1;SDS_P2;PMS_P1;PMS_P2;Temp;Humidity;BMP_temperature;BMP_pressure;BME280_temperature;BME280_humidity;BME280_pressure;Samples;Min_cycle;Max_cycle;Signal;HPM_P1;HPM_P2
2024/01/26 00:00:08;;;;;;;12.13;8.77;;;;;;;9.24;100.00;102199.13;5085770;28;20127;-67
2024/01/26 00:02:59;;;;;;;13.18;9.20;;;;;;;9.24;100.00;102210.84;5078042;28;20040;-67
2024/01/26 00:05:47;;;;;;;14.43;9.65;;;;;;;9.24;100.00;102210.84;5074604;28;20065;-67
2024/01/26 00:08:36;;;;;;;12.15;8.40;;;;;;;9.25;100.00;102203.50;5070053;28;20358;-66
2024/01/26 00:11:23;;;;;;;13.05;8.50;;;;;;;9.26;100.00;102202.44;5072884;28;20131;-67
2024/01/26 00:14:11;;;;;;;13.20;9.25;;;;;;;9.26;100.00;102192.41;5037270;28;20492;-66
2024/01/26 00:17:00;;;;;;;13.18;9.30;;;;;;;9.26;100.00;102189.69;5057693;28;20049;-66
2024/01/26 00:19:48;;;;;;;11.90;8.63;;;;;;;9.28;100.00;102189.44;5086091;28;20052;-67
2024/01/26 00:22:35;;;;;;;13.18;8.60;;;;;;;9.27;100.00;102191.34;5049538;28;20041;-68
2024/01/26 00:25:24;;;;;;;10.73;7.93;;;;;;;9.28;100.00;102195.72;5062835;28;20048;-67
2024/01/26 00:28:12;;;;;;;13.05;8.52;;;;;;;9.28;100.00;102195.72;5087317;28;20185;-67
2024/01/26 00:31:00;;;;;;;12.40;8.55;;;;;;;9.29;100.00;102186.50;5075454;28;20126;-66
2024/01/26 00:33:48;;;;;;;11.50;7.68;;;;;;;9.30;100.00;102193.59;5049021;28;20053;-67
2024/01/26 00:36:36;;;;;;;13.45;8.25;;;;;;;9.31;100.00;102187.13;5056149;28;20048;-67
2024/01/26 00:39:24;;;;;;;11.70;8.30;;;;;;;9.31;100.00;102187.13;5069810;28;20428;-67
2024/01/26 00:42:12;;;;;;;12.68;8.80;;;;;;;9.32;100.00;102188.78;5069965;28;20490;-67
2024/01/26 00:45:00;;;;;;;11.38;7.57;;;;;;;9.33;100.00;102195.03;5070469;28;20080;-67
2024/01/26 00:47:48;;;;;;;12.10;7.47;;;;;;;9.33;100.00;102184.16;5056362;28;20528;-68
2024/01/26 00:50:36;;;;;;;12.68;8.57;;;;;;;9.32;100.00;102180.63;5068582;28;20132;-66
2024/01/26 00:53:24;;;;;;;13.73;8.30;;;;;;;9.33;100.00;102179.56;5086046;28;20055;-66
2024/01/26 00:56:13;;;;;;;12.20;7.40;;;;;;;9.33;100.00;102184.16;5090881;28;20040;-67
2024/01/26 00:59:01;;;;;;;9.57;6.63;;;;;;;9.34;100.00;102167.63;5084569;28;20142;-67
2024/01/26 01:01:49;;;;;;;10.18;6.82;;;;;;;9.35;100.00;102171.16;5056130;28;20052;-67
2024/01/26 01:04:37;;;;;;;10.68;7.20;;;;;;;9.36;100.00;102168.22;5073851;28;20052;-66
2024/01/26 01:07:25;;;;;;;11.70;6.85;;;;;;;9.37;100.00;102166.34;5059497;28;20048;-67
2024/01/26 01:10:14;;;;;;;12.88;7.70;;;;;;;9.38;100.00;102174.28;5060003;28;20078;-67
2024/01/26 01:13:04;;;;;;;10.43;6.95;;;;;;;9.38;100.00;102166.13;5090040;28;20408;-66
2024/01/26 01:15:52;;;;;;;12.43;7.20;;;;;;;9.38;100.00;102168.84;5084930;28;20048;-67
2024/01/26 01:18:40;;;;;;;9.07;6.03;;;;;;;9.41;100.00;102164.00;5073252;28;20493;-67
2024/01/26 01:21:28;;;;;;;9.65;5.93;;;;;;;9.43;100.00;102173.59;5056048;28;20045;-67
2024/01/26 01:24:16;;;;;;;9.50;6.53;;;;;;;9.39;100.00;102175.94;5057170;28;20044;-67
2024/01/26 01:27:04;;;;;;;10.48;6.43;;;;;;;9.41;100.00;102169.44;5058763;28;20040;-67
2024/01/26 01:29:54;;;;;;;8.85;5.30;;;;;;;9.43;100.00;102164.59;5074555;28;20059;-66
2024/01/26 01:32:42;;;;;;;9.40;5.65;;;;;;;9.43;100.00;102170.03;5078997;28;20126;-68
2024/01/26 01:35:30;;;;;;;7.47;5.15;;;;;;;9.44;100.00;102152.66;5045390;28;20083;-66
2024/01/26 01:38:18;;;;;;;9.05;5.45;;;;;;;9.46;100.00;102147.84;5057480;28;20161;-67
2024/01/26 01:41:06;;;;;;;7.15;4.40;;;;;;;9.45;100.00;102159.75;5059167;28;20485;-67
2024/01/26 01:43:55;;;;;;;8.63;4.80;;;;;;;9.47;100.00;102152.22;5059014;28;20548;-67
2024/01/26 01:46:43;;;;;;;6.88;4.60;;;;;;;9.49;100.00;102144.66;5060094;28;20131;-67
2024/01/26 01:49:31;;;;;;;6.63;4.50;;;;;;;9.48;100.00;102140.28;5070736;28;20040;-66
2024/01/26 01:52:19;;;;;;;9.23;4.40;;;;;;;9.48;100.00;102132.13;5074383;28;20086;-67
2024/01/26 01:55:10;;;;;;;6.88;4.60;;;;;;;9.48;100.00;102126.69;5046406;28;20139;-67
2024/01/26 01:57:58;;;;;;;6.03;4.30;;;;;;;9.48;100.00;102123.97;5058411;28;20119;-67
2024/01/26 02:00:46;;;;;;;6.07;4.20;;;;;;;9.50;100.00;102135.41;5058218;28;20460;-67
2024/01/26 02:03:35;;;;;;;6.78;4.90;;;;;;;9.49;100.00;102126.44;5058462;28;20420;-66
2024/01/26 02:06:23;;;;;;;7.00;3.97;;;;;;;9.49;100.00;102125.59;5059237;28;20413;-67
2024/01/26 02:09:11;;;;;;;5.97;4.20;;;;;;;9.48;100.00;102113.91;5058306;28;20036;-67
2024/01/26 02:11:59;;;;;;;5.40;3.35;;;;;;;9.51;100.00;102113.44;5071899;28;20041;-67
2024/01/26 02:14:48;;;;;;;6.15;3.63;;;;;;;9.51;100.00;102107.16;5074363;28;20052;-67
2024/01/26 02:17:39;;;;;;;6.05;3.78;;;;;;;9.52;100.00;102115.06;5055677;28;20090;-67
2024/01/26 02:20:27;;;;;;;5.72;3.63;;;;;;;9.52;100.00;102106.09;5074661;28;20124;-68
2024/01/26 02:23:33;;;;;;;6.22;3.83;;;;;;;9.53;100.00;102105.88;5054833;28;20220;-68
2024/01/26 02:26:21;;;;;;;6.03;3.63;;;;;;;9.52;100.00;102098.75;5032247;28;20114;-67
2024/01/26 02:29:10;;;;;;;6.13;3.42;;;;;;;9.53;100.00;102097.72;5070605;28;20099;-67
2024/01/26 02:31:58;;;;;;;5.03;3.17;;;;;;;9.54;100.00;102080.31;5071951;28;20084;-68
2024/01/26 02:34:46;;;;;;;5.65;3.28;;;;;;;9.58;100.00;102077.97;5062856;28;20110;-68
2024/01/26 02:37:34;;;;;;;5.25;3.33;;;;;;;9.57;100.00;102079.88;5077196;28;20040;-68
2024/01/26 02:40:22;;;;;;;4.00;3.00;;;;;;;9.59;100.00;102074.19;5072371;28;20436;-68
2024/01/26 02:43:10;;;;;;;4.85;3.03;;;;;;;9.63;100.00;102072.66;5057684;28;20045;-67
2024/01/26 02:45:58;;;;;;;5.35;3.08;;;;;;;9.65;100.00;102067.00;5065447;28;20052;-66
2024/01/26 02:48:46;;;;;;;5.68;3.38;;;;;;;9.64;100.00;102062.63;5064058;28;20084;-67
2024/01/26 02:51:35;;;;;;;6.72;3.25;;;;;;;9.65;100.00;102065.13;5057506;28;20055;-67
2024/01/26 02:54:23;;;;;;;5.32;3.25;;;;;;;9.64;100.00;102058.00;5058981;28;20053;-67
2024/01/26 02:57:11;;;;;;;4.22;2.97;;;;;;;9.65;100.00;102067.00;5058112;28;20048;-66
2024/01/26 02:59:59;;;;;;;3.70;2.47;;;;;;;9.62;100.00;102060.13;5070383;28;20071;-66
2024/01/26 03:02:47;;;;;;;4.00;2.70;;;;;;;9.64;100.00;102049.81;5073068;28;20060;-67
2024/01/26 03:05:36;;;;;;;6.00;2.85;;;;;;;9.68;100.00;102042.88;5076880;28;20054;-67
2024/01/26 03:08:24;;;;;;;4.15;2.80;;;;;;;9.69;100.00;102038.25;5091357;28;20047;-67
2024/01/26 03:11:12;;;;;;;5.22;2.97;;;;;;;9.70;100.00;102029.88;5041832;28;20182;-67
2024/01/26 03:14:00;;;;;;;5.35;3.13;;;;;;;9.69;100.00;102028.22;5073099;28;20060;-67
2024/01/26 03:16:48;;;;;;;5.55;2.85;;;;;;;9.70;100.00;102023.59;5071188;28;20258;-68
2024/01/26 03:19:36;;;;;;;4.25;2.80;;;;;;;9.72;100.00;102022.31;5071267;28;20063;-67
2024/01/26 03:22:24;;;;;;;3.85;2.60;;;;;;;9.71;100.00;102026.06;5057329;28;20048;-66
2024/01/26 03:25:13;;;;;;;3.60;2.70;;;;;;;9.74;100.00;102014.75;5057223;28;20048;-67
2024/01/26 03:28:02;;;;;;;6.10;2.83;;;;;;;9.73;100.00;102002.19;5071516;28;20063;-67
2024/01/26 03:30:49;;;;;;;2.53;2.22;;;;;;;9.75;100.00;101996.50;5056164;28;20048;-66
2024/01/26 03:33:37;;;;;;;4.40;2.90;;;;;;;9.77;100.00;101986.22;5050656;28;20497;-67
2024/01/26 03:36:26;;;;;;;3.15;2.60;;;;;;;9.81;100.00;101987.41;5038759;28;20048;-66
2024/01/26 03:39:13;;;;;;;4.88;2.85;;;;;;;9.78;100.00;101988.69;5038118;28;20622;-67
2024/01/26 03:42:03;;;;;;;4.35;2.65;;;;;;;9.76;100.00;101979.09;5043469;28;20562;-67
2024/01/26 03:44:51;;;;;;;4.93;2.60;;;;;;;9.78;100.00;101980.53;5042854;28;20059;-67
2024/01/26 03:47:40;;;;;;;3.20;2.50;;;;;;;9.78;100.00;101977.81;5057359;28;20067;-66
2024/01/26 03:50:28;;;;;;;7.88;3.25;;;;;;;9.80;100.00;101972.97;5073403;28;20385;-67
2024/01/26 03:53:16;;;;;;;3.15;2.58;;;;;;;9.80;100.00;101964.78;5051092;28;20393;-67
2024/01/26 03:56:04;;;;;;;4.40;2.58;;;;;;;9.79;100.00;101965.88;5037686;28;20045;-67
2024/01/26 03:58:53;;;;;;;3.85;2.40;;;;;;;9.78;100.00;101966.09;5055087;28;20193;-68
2024/01/26 04:01:43;;;;;;;3.80;2.40;;;;;;;9.82;100.00;101968.13;5043149;28;20040;-67
2024/01/26 04:04:31;;;;;;;4.30;2.50;;;;;;;9.86;100.00;101970.34;5050624;28;20489;-68
2024/01/26 04:07:19;;;;;;;4.03;2.30;;;;;;;9.81;100.00;101949.28;5037984;28;20053;-66
2024/01/26 04:10:08;;;;;;;4.18;2.60;;;;;;;9.81;100.00;101952.00;5051323;28;20055;-66
2024/01/26 04:12:56;;;;;;;5.30;2.58;;;;;;;9.83;100.00;101952.59;5049686;28;20044;-67
2024/01/26 04:15:46;;;;;;;5.00;2.90;;;;;;;9.84;100.00;101947.97;5057526;28;20045;-67
2024/01/26 04:18:34;;;;;;;4.68;2.80;;;;;;;9.86;100.00;101932.25;5056731;28;20056;-67
2024/01/26 04:21:23;;;;;;;5.05;2.90;;;;;;;9.82;100.00;101924.56;5071607;28;20049;-67
2024/01/26 04:24:11;;;;;;;4.95;2.45;;;;;;;9.86;100.00;101915.91;5070302;28;20040;-67
2024/01/26 04:27:00;;;;;;;4.70;2.63;;;;;;;9.87;100.00;101914.88;5071634;28;20466;-67
2024/01/26 04:29:48;;;;;;;5.10;2.70;;;;;;;9.86;100.00;101905.03;5039424;28;20041;-67
2024/01/26 04:32:37;;;;;;;4.13;2.97;;;;;;;9.89;100.00;101897.22;5058312;28;20128;-67
2024/01/26 04:35:25;;;;;;;5.32;3.17;;;;;;;9.90;100.00;101895.34;5068580;28;20037;-67
2024/01/26 04:38:13;;;;;;;6.60;3.30;;;;;;;9.96;100.00;101888.94;5054388;28;20056;-65
2024/01/26 04:41:01;;;;;;;5.78;3.13;;;;;;;10.02;100.00;101885.25;5072194;28;20048;-64
2024/01/26 04:43:49;;;;;;;4.45;2.95;;;;;;;10.05;100.00;101895.66;5071600;28;20048;-67
2024/01/26 04:46:37;;;;;;;6.82;3.53;;;;;;;10.03;100.00;101881.50;5063267;28;20120;-67
2024/01/26 04:49:25;;;;;;;7.80;3.40;;;;;;;10.03;100.00;101870.59;5047373;28;20060;-64
2024/01/26 04:52:14;;;;;;;7.75;3.75;;;;;;;10.01;100.00;101856.38;5061164;28;20451;-66
2024/01/26 04:55:04;;;;;;;8.45;3.58;;;;;;;10.03;100.00;101887.75;5049527;28;20052;-66
2024/01/26 04:57:52;;;;;;;6.60;3.75;;;;;;;10.04;100.00;101904.91;5062230;28;20052;-66
2024/01/26 05:00:40;;;;;;;7.80;4.00;;;;;;;10.01;100.00;101905.41;5072810;28;20040;-68
2024/01/26 05:03:28;;;;;;;6.53;3.92;;;;;;;9.97;100.00;101899.59;5046132;28;20040;-68
2024/01/26 05:06:16;;;;;;;6.55;3.65;;;;;;;9.97;100.00;101880.53;5026650;28;20049;-66
2024/01/26 05:09:05;;;;;;;6.72;4.10;;;;;;;10.02;100.00;101890.72;5040723;28;20432;-67
2024/01/26 05:11:54;;;;;;;8.48;4.55;;;;;;;9.98;100.00;101890.38;5070056;28;20059;-66
2024/01/26 05:14:42;;;;;;;10.02;5.10;;;;;;;9.91;100.00;101877.91;5059637;28;20128;-67
2024/01/26 05:17:32;;;;;;;9.55;4.90;;;;;;;9.87;100.00;101869.41;5037455;28;20069;-67
2024/01/26 05:20:28;;;;;;;9.48;4.80;;;;;;;9.84;100.00;101860.88;5037539;28;20516;-67
2024/01/26 05:23:16;;;;;;;8.90;4.05;;;;;;;9.85;100.00;101857.13;5059071;28;20519;-67
2024/01/26 05:26:04;;;;;;;8.52;4.32;;;;;;;9.87;100.00;101857.72;5074416;28;20052;-67
2024/01/26 05:28:52;;;;;;;7.75;3.53;;;;;;;9.93;100.00;101845.84;5043663;28;20049;-67
2024/01/26 05:31:41;;;;;;;5.53;3.25;;;;;;;9.95;100.00;101824.66;5073001;28;20076;-67
2024/01/26 05:34:29;;;;;;;7.55;3.80;;;;;;;9.96;100.00;101829.88;5059312;28;20141;-66
2024/01/26 05:37:17;;;;;;;6.88;4.07;;;;;;;9.97;100.00;101833.41;5060841;28;20056;-67
2024/01/26 05:40:07;;;;;;;9.70;3.58;;;;;;;9.97;100.00;101822.53;5051697;28;20489;-67
2024/01/26 05:42:54;;;;;;;10.73;2.65;;;;;;;10.03;100.00;101827.03;5053490;28;20469;-68
2024/01/26 05:45:42;;;;;;;7.75;2.90;;;;;;;10.20;100.00;101827.94;5062440;28;20473;-68
2024/01/26 05:48:30;;;;;;;7.03;4.10;;;;;;;10.14;100.00;101828.88;5072679;28;20076;-67
2024/01/26 05:51:19;;;;;;;8.95;3.22;;;;;;;10.24;100.00;101801.84;5058323;28;20044;-67
2024/01/26 05:54:07;;;;;;;6.95;2.60;;;;;;;10.28;100.00;101794.06;5058203;28;20507;-67
2024/01/26 05:56:55;;;;;;;10.50;4.32;;;;;;;10.30;100.00;101815.63;4684280;28;9999718;-67
2024/01/26 05:59:43;;;;;;;6.97;3.00;;;;;;;10.28;100.00;101815.00;5068906;28;20051;-68
2024/01/26 06:02:31;;;;;;;8.88;3.95;;;;;;;10.21;100.00;101805.06;5042697;28;20044;-68
2024/01/26 06:05:21;;;;;;;7.20;3.50;;;;;;;10.20;100.00;101810.78;5053685;28;20084;-67
2024/01/26 06:08:09;;;;;;;7.22;3.40;;;;;;;10.26;100.00;101803.53;5054808;28;20144;-68
2024/01/26 06:10:57;;;;;;;5.43;3.63;;;;;;;10.29;100.00;101794.88;5070907;28;20103;-67
2024/01/26 06:13:45;;;;;;;6.72;3.40;;;;;;;10.17;100.00;101793.03;5055839;28;20424;-67
2024/01/26 06:16:33;;;;;;;7.97;3.40;;;;;;;10.36;100.00;101787.41;5061337;28;20586;-66
2024/01/26 06:19:21;;;;;;;8.23;3.30;;;;;;;10.38;100.00;101799.72;5074433;28;20040;-67
2024/01/26 06:22:09;;;;;;;5.88;2.90;;;;;;;10.31;100.00;101792.75;5050983;28;20048;-67
2024/01/26 06:24:57;;;;;;;8.07;4.00;;;;;;;10.23;100.00;101786.59;5053540;28;20455;-68
2024/01/26 06:27:45;;;;;;;7.85;2.72;;;;;;;10.30;100.00;101777.50;5044425;28;20072;-68
2024/01/26 06:30:33;;;;;;;6.13;3.22;;;;;;;10.36;100.00;101765.63;5069812;28;20049;-69
2024/01/26 06:33:22;;;;;;;5.38;3.25;;;;;;;10.27;100.00;101776.06;5042526;28;20048;-68
2024/01/26 06:36:13;;;;;;;7.28;3.72;;;;;;;10.14;100.00;101779.88;5068946;28;20069;-67
2024/01/26 06:39:01;;;;;;;6.50;3.25;;;;;;;10.13;100.00;101769.22;5053331;28;20567;-68
2024/01/26 06:41:49;;;;;;;6.70;3.80;;;;;;;10.22;100.00;101773.22;5058108;28;20179;-68
2024/01/26 06:44:37;;;;;;;5.95;3.60;;;;;;;10.21;100.00;101779.72;5066733;28;20052;-67
2024/01/26 06:47:26;;;;;;;7.95;3.40;;;;;;;10.12;100.00;101776.56;5073298;28;20536;-67
2024/01/26 06:50:14;;;;;;;5.07;3.55;;;;;;;10.09;100.00;101776.22;5054991;28;20044;-67
2024/01/26 06:53:02;;;;;;;10.23;3.88;;;;;;;10.07;100.00;101783.81;5039770;28;20370;-67
2024/01/26 06:55:50;;;;;;;9.82;3.35;;;;;;;10.05;100.00;101770.41;5055901;28;20542;-67
2024/01/26 06:58:40;;;;;;;6.95;4.47;;;;;;;10.01;100.00;101763.81;5018031;28;20652;-68
2024/01/26 07:01:28;;;;;;;11.55;3.50;;;;;;;10.08;100.00;101764.50;5041780;28;20044;-68
2024/01/26 07:04:17;;;;;;;6.30;3.70;;;;;;;10.11;100.00;101758.56;5055720;28;20517;-67
2024/01/26 07:07:05;;;;;;;6.28;3.60;;;;;;;10.11;100.00;101761.28;5074822;28;20127;-68
2024/01/26 07:09:53;;;;;;;6.18;3.97;;;;;;;10.09;100.00;101754.44;5075054;28;20487;-68
2024/01/26 07:12:41;;;;;;;6.72;3.60;;;;;;;10.05;100.00;101753.25;5070042;28;20528;-68
2024/01/26 07:15:30;;;;;;;7.53;4.07;;;;;;;10.11;100.00;101746.84;5060710;28;20049;-68
2024/01/26 07:18:18;;;;;;;6.93;4.07;;;;;;;10.14;100.00;101740.91;5050775;28;20059;-68
2024/01/26 07:21:08;;;;;;;10.82;3.95;;;;;;;10.17;100.00;101746.72;5053670;28;20203;-66
2024/01/26 07:23:56;;;;;;;7.28;3.55;;;;;;;10.19;100.00;101717.31;5067084;28;20063;-66
2024/01/26 07:26:46;;;;;;;6.82;3.83;;;;;;;10.18;100.00;101736.66;5068081;28;20052;-66
2024/01/26 07:29:34;;;;;;;13.95;4.35;;;;;;;10.22;100.00;101726.91;5068437;28;20134;-67
2024/01/26 07:32:22;;;;;;;7.03;3.95;;;;;;;10.15;100.00;101732.53;5060567;28;20520;-68
2024/01/26 07:35:10;;;;;;;10.18;4.28;;;;;;;10.17;100.00;101733.09;5027242;28;20098;-68
2024/01/26 07:37:58;;;;;;;8.27;4.30;;;;;;;10.18;100.00;101725.75;5025286;28;20099;-68
2024/01/26 07:40:46;;;;;;;11.20;4.25;;;;;;;10.20;100.00;101720.91;5044011;28;20056;-68
2024/01/26 07:43:34;;;;;;;16.55;5.65;;;;;;;10.22;100.00;101725.03;5055168;28;20045;-68
2024/01/26 07:46:22;;;;;;;9.55;4.20;;;;;;;10.22;100.00;101735.94;5053656;28;20151;-69
2024/01/26 07:49:10;;;;;;;13.70;4.20;;;;;;;10.24;100.00;101738.38;5034570;28;20842;-68
2024/01/26 07:51:59;;;;;;;6.75;3.70;;;;;;;10.22;100.00;101733.19;5041216;28;20055;-68
2024/01/26 07:54:48;;;;;;;6.80;3.58;;;;;;;10.19;100.00;101751.91;5059432;28;20163;-66
2024/01/26 07:57:37;;;;;;;6.70;4.20;;;;;;;10.22;100.00;101759.59;5049069;28;20052;-67
2024/01/26 08:00:26;;;;;;;6.47;3.80;;;;;;;10.18;100.00;101758.44;5038549;28;20041;-67
2024/01/26 08:03:14;;;;;;;8.48;3.83;;;;;;;10.23;100.00;101772.97;5048012;28;20126;-68
2024/01/26 08:06:02;;;;;;;7.95;4.13;;;;;;;10.22;100.00;101776.78;5050781;28;20052;-67
2024/01/26 08:08:51;;;;;;;7.07;4.10;;;;;;;10.23;100.00;101780.31;5059895;28;20071;-68
2024/01/26 08:11:39;;;;;;;7.47;3.92;;;;;;;10.21;100.00;101786.00;5067652;28;20492;-68
2024/01/26 08:14:27;;;;;;;8.32;4.22;;;;;;;10.30;100.00;101777.50;5034146;28;20041;-68
2024/01/26 08:17:16;;;;;;;9.55;4.10;;;;;;;10.30;100.00;101777.50;5052955;28;20496;-69
2024/01/26 08:20:05;;;;;;;7.47;3.78;;;;;;;10.29;100.00;101778.53;5068498;28;20095;-69
2024/01/26 08:22:55;;;;;;;7.32;3.55;;;;;;;10.27;100.00;101788.81;5018440;28;20052;-68
2024/01/26 08:25:44;;;;;;;6.45;3.90;;;;;;;10.27;100.00;101780.66;5054367;28;20530;-67
2024/01/26 08:28:34;;;;;;;6.93;4.15;;;;;;;10.30;100.00;101781.03;5050072;28;20037;-68
2024/01/26 08:31:22;;;;;;;8.40;4.57;;;;;;;10.34;100.00;101784.94;5059140;28;20055;-68
2024/01/26 08:34:10;;;;;;;9.35;4.05;;;;;;;10.36;100.00;101787.41;5064113;28;20088;-68
2024/01/26 08:36:58;;;;;;;6.82;4.03;;;;;;;10.35;100.00;101780.31;5054153;28;20143;-67
2024/01/26 08:39:47;;;;;;;6.63;3.65;;;;;;;10.34;100.00;101779.50;5068651;28;20056;-67
2024/01/26 08:42:35;;;;;;;7.10;3.42;;;;;;;10.34;100.00;101784.09;5069945;28;20041;-68
2024/01/26 08:45:23;;;;;;;8.20;3.85;;;;;;;10.40;100.00;101788.59;5053228;28;20220;-67
2024/01/26 08:48:13;;;;;;;7.07;3.45;;;;;;;10.38;100.00;101774.38;5042225;28;20052;-68
2024/01/26 08:51:02;;;;;;;7.18;4.03;;;;;;;10.36;100.00;101771.06;5056967;28;20436;-67
2024/01/26 08:53:50;;;;;;;5.85;3.90;;;;;;;10.34;100.00;101773.19;5073081;28;20044;-66
2024/01/26 08:56:42;;;;;;;7.80;4.15;;;;;;;10.33;100.00;101771.56;5067039;28;20052;-68
2024/01/26 08:59:30;;;;;;;8.50;4.18;;;;;;;10.33;100.00;101774.28;5072582;28;20051;-66
2024/01/26 09:02:18;;;;;;;9.05;4.32;;;;;;;10.34;100.00;101778.66;5078510;28;20080;-68
2024/01/26 09:05:06;;;;;;;9.27;4.65;;;;;;;10.34;100.00;101784.09;5065094;28;20182;-66
2024/01/26 09:07:55;;;;;;;7.25;3.40;;;;;;;10.37;100.00;101783.63;5081109;28;20083;-67
2024/01/26 09:10:43;;;;;;;7.85;3.70;;;;;;;10.37;100.00;101789.06;5060163;28;20091;-68
2024/01/26 09:13:31;;;;;;;6.50;3.22;;;;;;;10.37;100.00;101802.69;5058156;28;20084;-69
2024/01/26 09:16:19;;;;;;;7.22;3.78;;;;;;;10.40;100.00;101827.53;5057481;28;20473;-68
2024/01/26 09:19:08;;;;;;;8.00;3.42;;;;;;;10.39;100.00;101838.66;5056504;28;20049;-68
2024/01/26 09:21:56;;;;;;;5.38;2.75;;;;;;;10.34;100.00;101850.31;5059985;28;20501;-68
2024/01/26 09:24:44;;;;;;;7.38;2.88;;;;;;;10.33;100.00;101836.94;5058956;28;20047;-67
2024/01/26 09:27:32;;;;;;;7.28;2.70;;;;;;;10.31;100.00;101855.41;5045148;28;20045;-66
2024/01/26 09:30:20;;;;;;;7.68;2.60;;;;;;;10.30;100.00;101873.66;5059775;28;20110;-67
2024/01/26 09:33:12;;;;;;;6.43;2.30;;;;;;;10.32;100.00;101867.94;5060303;28;20045;-68
2024/01/26 09:36:01;;;;;;;7.45;2.42;;;;;;;10.30;100.00;101881.81;5045012;28;20129;-67
2024/01/26 09:38:50;;;;;;;7.22;2.78;;;;;;;10.28;100.00;101889.41;5059458;28;20054;-67
2024/01/26 09:41:39;;;;;;;9.23;3.05;;;;;;;10.28;100.00;101899.44;5060437;28;20045;-67
2024/01/26 09:44:27;;;;;;;8.30;2.80;;;;;;;10.23;100.00;101898.25;5076708;28;20084;-67
2024/01/26 09:47:16;;;;;;;16.15;3.63;;;;;;;10.22;100.00;101923.00;5059886;28;20149;-67
2024/01/26 09:50:05;;;;;;;9.60;3.08;;;;;;;10.15;100.00;101952.25;5059456;28;20131;-67
2024/01/26 09:52:55;;;;;;;11.48;2.92;;;;;;;9.93;100.00;101962.91;5075156;28;20141;-66
2024/01/26 09:55:47;;;;;;;9.77;2.72;;;;;;;9.87;100.00;101993.81;5061088;28;20129;-65
2024/01/26 09:58:35;;;;;;;10.25;3.05;;;;;;;9.80;100.00;101981.13;5059764;28;20127;-69
2024/01/26 10:01:24;;;;;;;13.80;3.45;;;;;;;9.80;100.00;102002.06;5059222;28;20178;-67
2024/01/26 10:04:12;;;;;;;10.10;2.95;;;;;;;9.76;100.00;102009.88;5045079;28;20084;-66
2024/01/26 10:07:00;;;;;;;11.07;3.45;;;;;;;9.72;100.00;102005.97;5046625;28;20131;-67
2024/01/26 10:09:48;;;;;;;10.32;3.38;;;;;;;9.73;100.00;102034.84;5074673;28;20412;-67
2024/01/26 10:12:42;;;;;;;14.02;3.28;;;;;;;9.75;100.00;102031.91;5076837;28;20117;-67
2024/01/26 10:15:30;;;;;;;9.70;2.92;;;;;;;9.73;100.00;102053.88;5053457;28;20052;-66
2024/01/26 10:18:19;;;;;;;11.07;3.28;;;;;;;9.71;100.00;102064.16;5040648;28;20513;-67
2024/01/26 10:21:08;;;;;;;10.52;3.00;;;;;;;9.72;100.00;102044.06;5055361;28;20442;-68
2024/01/26 10:23:56;;;;;;;12.38;3.53;;;;;;;9.70;100.00;102048.91;5040564;28;20041;-68
2024/01/26 10:26:45;;;;;;;11.73;3.20;;;;;;;9.66;100.00;102061.31;5058685;28;20443;-67
2024/01/26 10:29:34;;;;;;;11.70;3.45;;;;;;;9.64;100.00;102078.94;5060886;28;20056;-67
2024/01/26 10:32:28;;;;;;;16.85;3.85;;;;;;;9.64;100.00;102096.09;5074424;28;20049;-67
2024/01/26 10:35:18;;;;;;;11.80;2.90;;;;;;;9.67;100.00;102111.97;5073651;28;20131;-68
2024/01/26 10:38:09;;;;;;;15.93;4.10;;;;;;;9.67;100.00;102109.25;5045148;28;20059;-68
2024/01/26 10:41:04;;;;;;;15.07;4.18;;;;;;;9.63;100.00;102116.22;5046538;28;20036;-68
2024/01/26 10:43:55;;;;;;;14.52;3.47;;;;;;;9.59;100.00;102131.31;5062151;28;20052;-67
2024/01/26 10:46:44;;;;;;;14.93;3.65;;;;;;;9.56;100.00;102126.34;5059489;28;20500;-67
2024/01/26 10:49:33;;;;;;;10.35;2.92;;;;;;;9.62;100.00;102136.34;5045034;28;20131;-68
2024/01/26 10:52:22;;;;;;;11.20;3.00;;;;;;;9.56;100.00;102134.50;5072148;28;20050;-68
2024/01/26 10:55:15;;;;;;;10.57;2.97;;;;;;;9.51;100.00;102150.69;5058954;28;20492;-67
2024/01/26 10:58:04;;;;;;;12.13;3.20;;;;;;;9.44;100.00;102166.28;5058862;28;20533;-66
2024/01/26 11:00:54;;;;;;;11.60;3.25;;;;;;;9.41;100.00;102164.84;5073744;28;20084;-68
2024/01/26 11:03:43;;;;;;;11.35;3.20;;;;;;;9.36;100.00;102203.59;5059988;28;20045;-68
2024/01/26 11:06:32;;;;;;;10.02;3.10;;;;;;;9.35;100.00;102190.22;5011553;28;20049;-67
2024/01/26 11:09:21;;;;;;;10.98;3.13;;;;;;;9.36;100.00;102202.78;5052711;28;20406;-66
2024/01/26 11:12:26;;;;;;;10.48;2.88;;;;;;;9.37;100.00;102207.97;5041199;28;20129;-68
2024/01/26 11:15:15;;;;;;;8.40;2.47;;;;;;;9.42;100.00;102211.91;5038966;28;20485;-67
2024/01/26 11:18:05;;;;;;;12.45;3.25;;;;;;;9.45;100.00;102222.31;5039591;28;20049;-67
2024/01/26 11:20:53;;;;;;;11.00;3.65;;;;;;;9.41;99.20;102238.28;5058161;28;20069;-67
2024/01/26 11:23:42;;;;;;;11.57;2.85;;;;;;;9.39;100.00;102234.97;5073338;28;20067;-67
2024/01/26 11:26:30;;;;;;;13.75;3.28;;;;;;;9.36;97.01;102263.44;5045159;28;20040;-68
2024/01/26 11:29:19;;;;;;;14.20;3.33;;;;;;;9.35;94.97;102266.38;5072129;28;20507;-68
2024/01/26 11:32:19;;;;;;;12.30;3.10;;;;;;;9.35;96.74;102269.91;5058182;28;20131;-67
2024/01/26 11:35:16;;;;;;;11.90;3.58;;;;;;;9.38;95.18;102266.78;5042838;28;20099;-68
2024/01/26 11:38:04;;;;;;;12.95;3.60;;;;;;;9.38;96.61;102285.81;5057847;28;20052;-66
2024/01/26 11:41:00;;;;;;;14.35;3.58;;;;;;;9.43;97.86;102281.56;5042895;28;20052;-67
2024/01/26 11:43:48;;;;;;;;;;;;;;;9.47;98.94;102280.06;5026751;28;20068;-67
2024/01/26 11:46:37;;;;;;;14.45;3.72;;;;;;;9.44;97.85;102294.97;5051970;28;19921;-68
2024/01/26 11:49:25;;;;;;;14.60;3.17;;;;;;;9.44;98.70;102318.63;5037257;28;20040;-67
2024/01/26 11:52:15;;;;;;;10.75;3.30;;;;;;;9.44;98.26;102313.19;5037356;28;20037;-68
2024/01/26 11:55:05;;;;;;;14.70;3.88;;;;;;;9.43;98.80;102333.25;5027246;28;20044;-67
2024/01/26 11:57:53;;;;;;;12.02;3.35;;;;;;;9.28;90.42;102342.59;5058222;28;20049;-67
2024/01/26 12:00:41;;;;;;;13.63;3.53;;;;;;;9.17;88.27;102348.75;5056773;28;20064;-68
2024/01/26 12:03:29;;;;;;;16.35;3.63;;;;;;;9.08;86.83;102355.53;5056769;28;20054;-68
2024/01/26 12:06:18;;;;;;;10.18;3.60;;;;;;;9.07;85.72;102368.28;5073879;28;20066;-66
2024/01/26 12:09:09;;;;;;;14.05;3.47;;;;;;;9.08;86.65;102363.69;5058774;28;20060;-66
2024/01/26 12:11:57;;;;;;;13.98;3.80;;;;;;;9.10;88.13;102377.88;5070528;28;20419;-68
2024/01/26 12:14:45;;;;;;;15.68;3.60;;;;;;;9.11;88.60;102393.97;5058563;28;20059;-67
2024/01/26 12:17:34;;;;;;;14.68;4.28;;;;;;;9.12;88.79;102382.06;5043581;28;20041;-67
2024/01/26 12:20:23;;;;;;;12.43;3.58;;;;;;;9.13;88.52;102400.03;5070412;28;20048;-68
2024/01/26 12:23:20;;;;;;;14.57;3.95;;;;;;;9.15;88.82;102397.09;5072922;28;20106;-67
2024/01/26 12:26:14;;;;;;;10.85;3.13;;;;;;;9.16;89.65;102398.75;5057898;28;20136;-66
2024/01/26 12:29:02;;;;;;;13.05;3.30;;;;;;;9.21;91.39;102409.78;5071575;28;20124;-68
2024/01/26 12:31:50;;;;;;;14.40;3.65;;;;;;;9.19;89.36;102403.78;5070747;28;20082;-67
2024/01/26 12:34:38;;;;;;;12.00;3.63;;;;;;;9.12;87.89;102428.28;5056208;28;20040;-67
2024/01/26 12:37:27;;;;;;;11.75;3.83;;;;;;;9.15;90.33;102446.88;5030477;28;20044;-68
2024/01/26 12:40:15;;;;;;;19.75;4.22;;;;;;;9.09;88.41;102446.91;5042035;28;20078;-68
2024/01/26 12:43:05;;;;;;;13.38;3.42;;;;;;;9.03;89.06;102445.91;5072992;28;20057;-68
2024/01/26 12:45:53;;;;;;;15.15;3.78;;;;;;;9.02;90.21;102451.53;5058414;28;20060;-68
2024/01/26 12:48:41;;;;;;;18.85;3.70;;;;;;;9.04;90.88;102454.88;5058294;28;20053;-68
2024/01/26 12:51:30;;;;;;;14.55;4.38;;;;;;;9.00;88.37;102464.53;5071442;28;20191;-68
2024/01/26 12:54:18;;;;;;;14.27;4.50;;;;;;;8.93;87.54;102473.56;5045656;28;20542;-68
2024/01/26 12:57:06;;;;;;;19.10;3.83;;;;;;;8.92;89.86;102479.19;5034128;28;20409;-68
2024/01/26 12:59:54;;;;;;;14.80;4.05;;;;;;;8.91;90.14;102491.97;5047282;28;20052;-67